Time;durP1;ratioP1;P1;durP2;ratioP2;P2;SDS_P1;SDS_P2;PMS_P1;PMS_P2;Temp;Humidity;BMP_temperature;BMP_pressure;BME280_temperature;BME280_humidity;BME280_pressure;Samples;Min_cycle;Max_cycle;Signal;HPM_P1;HPM_P2
2023/08/01 00:02:23;;;;;;;;;0.00;0.00;;;;;17.25;86.92;98195.25;5095510;28;8864;-59
2023/08/01 00:04:51;;;;;;;;;1.00;0.00;;;;;17.27;86.87;98192.38;5095897;28;8818;-59
2023/08/01 00:07:18;;;;;;;;;0.00;0.00;;;;;17.27;86.90;98198.59;5095224;28;8936;-58
2023/08/01 00:09:46;;;;;;;;;0.00;0.00;;;;;17.27;86.76;98184.31;5095585;28;8860;-58
2023/08/01 00:12:14;;;;;;;;;0.00;0.00;;;;;17.26;86.62;98186.19;5096481;28;8830;-58
2023/08/01 00:14:42;;;;;;;;;0.00;0.00;;;;;17.27;86.63;98179.75;5096057;28;8837;-59
2023/08/01 00:17:10;;;;;;;;;0.00;0.00;;;;;17.27;86.97;98176.22;5096148;28;8940;-58
2023/08/01 00:19:37;;;;;;;;;0.00;0.00;;;;;17.26;86.81;98170.03;5095984;28;9511;-58
2023/08/01 00:22:05;;;;;;;;;0.40;0.00;;;;;17.28;86.77;98172.50;5096054;28;8810;-57
2023/08/01 00:24:33;;;;;;;;;0.00;0.00;;;;;17.27;86.90;98169.00;5095116;28;8822;-58
2023/08/01 00:27:01;;;;;;;;;0.00;0.00;;;;;17.28;87.20;98169.81;5095029;28;8813;-57
2023/08/01 00:29:28;;;;;;;;;0.00;0.00;;;;;17.27;87.51;98163.63;5095241;28;8807;-58
2023/08/01 00:31:56;;;;;;;;;0.00;0.00;;;;;17.28;87.66;98156.34;5095003;28;8846;-58
2023/08/01 00:34:24;;;;;;;;;0.00;0.00;;;;;17.28;87.46;98149.13;5095530;28;8815;-58
2023/08/01 00:36:51;;;;;;;;;0.00;0.00;;;;;17.29;87.09;98123.03;5098492;28;8818;-59
2023/08/01 00:39:19;;;;;;;;;0.00;0.00;;;;;17.28;87.20;98151.81;5099596;28;8820;-58
2023/08/01 00:41:46;;;;;;;;;0.00;0.00;;;;;17.30;87.56;98143.53;5099436;28;8856;-58
2023/08/01 00:44:14;;;;;;;;;0.00;0.00;;;;;17.30;87.16;98140.84;5099845;28;9488;-58
2023/08/01 00:46:42;;;;;;;;;0.00;0.00;;;;;17.31;87.25;98127.16;5099562;28;8845;-58
2023/08/01 00:49:09;;;;;;;;;0.00;0.00;;;;;17.31;87.19;98119.09;5099168;28;8828;-58
2023/08/01 00:51:37;;;;;;;;;0.00;0.00;;;;;17.31;87.45;98119.09;5099248;28;8838;-57
2023/08/01 00:54:04;;;;;;;;;0.00;0.00;;;;;17.33;87.65;98125.09;5099566;28;8837;-58
2023/08/01 00:56:32;;;;;;;;;0.00;0.00;;;;;17.33;87.56;98114.31;5099567;28;9749;-58
2023/08/01 00:59:00;;;;;;;;;0.00;0.00;;;;;17.33;87.81;98111.63;5098809;28;8830;-57
2023/08/01 01:01:28;;;;;;;;;0.00;0.00;;;;;17.35;87.38;98112.28;5098995;28;8853;-57
2023/08/01 01:03:56;;;;;;;;;0.00;0.00;;;;;17.35;87.57;98085.38;5098868;28;8826;-58
2023/08/01 01:06:23;;;;;;;;;0.00;0.00;;;;;17.36;87.71;98088.88;5099136;28;8830;-57
2023/08/01 01:08:51;;;;;;;;;0.00;0.00;;;;;17.36;87.68;98103.19;5098823;28;8830;-58
2023/08/01 01:11:19;;;;;;;;;0.00;0.00;;;;;17.35;87.46;98104.19;5098956;28;8818;-58
2023/08/01 01:13:46;;;;;;;;;0.00;0.00;;;;;17.37;87.04;98098.63;5098846;28;8813;-58
2023/08/01 01:16:14;;;;;;;;;0.00;0.00;;;;;17.38;87.03;98103.00;5098891;28;9587;-58
2023/08/01 01:18:42;;;;;;;;;0.00;0.00;;;;;17.40;87.41;98119.75;5098756;28;9518;-57
2023/08/01 01:27:28;;;;;;;;;0.00;0.00;;;;;17.41;86.95;98098.03;5098703;28;8770;-58
2023/08/01 01:29:55;;;;;;;;;0.00;0.00;;;;;17.36;87.15;98091.56;5098037;28;8806;-59
2023/08/01 01:32:23;;;;;;;;;0.00;0.00;;;;;17.32;86.82;98091.16;5098914;28;8860;-58
2023/08/01 01:34:51;;;;;;;;;0.00;0.00;;;;;17.28;87.17;98086.41;5098516;28;9508;-58
2023/08/01 01:37:18;;;;;;;;;0.00;0.00;;;;;17.24;86.87;98094.06;5098353;28;8841;-58
2023/08/01 01:39:46;;;;;;;;;0.00;0.00;;;;;17.20;87.12;98092.84;5098194;28;9531;-58
2023/08/01 01:42:14;;;;;;;;;0.00;0.00;;;;;17.14;87.53;98090.13;5098048;28;8794;-58
2023/08/01 01:44:42;;;;;;;;;0.00;0.00;;;;;17.08;87.49;98099.88;5098238;28;8840;-58
2023/08/01 01:47:09;;;;;;;;;0.00;0.00;;;;;17.03;87.58;98080.03;5097354;28;8826;-58
2023/08/01 01:49:37;;;;;;;;;0.00;0.00;;;;;16.98;87.62;98091.41;5097842;28;8806;-58
2023/08/01 01:52:05;;;;;;;;;0.00;0.00;;;;;16.95;88.07;98085.63;5098161;28;8822;-58
2023/08/01 01:54:32;;;;;;;;;0.00;0.00;;;;;16.93;87.96;98074.25;5098021;28;8828;-58
2023/08/01 01:57:00;;;;;;;;;0.00;0.00;;;;;16.90;87.65;98077.34;5097997;28;8818;-57
2023/08/01 01:59:28;;;;;;;;;0.00;0.00;;;;;16.89;87.87;98089.97;5097400;28;8865;-58
2023/08/01 02:01:55;;;;;;;;;0.00;0.00;;;;;16.90;88.11;98093.47;5097510;28;8822;-57
2023/08/01 02:04:23;;;;;;;;;0.00;0.00;;;;;16.88;87.30;98082.09;5097429;28;8826;-58
2023/08/01 02:06:53;;;;;;;;;0.00;0.00;;;;;16.89;87.72;98073.84;5097622;28;8818;-57
2023/08/01 02:09:21;;;;;;;;;0.00;0.00;;;;;16.90;87.63;98066.56;5096421;28;8844;-58
2023/08/01 02:11:48;;;;;;;;;0.00;0.00;;;;;16.88;87.76;98077.56;5096560;28;8838;-58
2023/08/01 02:14:16;;;;;;;;;0.00;0.00;;;;;16.87;87.12;98070.50;5096861;28;8822;-57
2023/08/01 02:16:44;;;;;;;;;0.00;0.00;;;;;16.88;87.59;98072.19;5096849;28;8826;-57
2023/08/01 02:19:12;;;;;;;;;0.80;0.40;;;;;16.88;87.33;98072.19;5096323;28;8935;-58
2023/08/01 02:21:40;;;;;;;;;0.00;0.00;;;;;16.88;87.10;98072.19;5096718;28;8825;-58
2023/08/01 02:24:07;;;;;;;;;0.00;0.00;;;;;16.87;87.44;98075.06;5096995;28;8818;-58
2023/08/01 02:26:35;;;;;;;;;0.00;0.00;;;;;16.85;87.55;98067.19;5097635;28;8821;-58
2023/08/01 02:29:02;;;;;;;;;0.00;0.00;;;;;16.87;87.68;98067.00;5096985;28;8817;-58
2023/08/01 02:31:30;;;;;;;;;1.00;1.00;;;;;16.87;87.53;98075.88;5097160;28;8830;-58
2023/08/01 02:33:58;;;;;;;;;0.20;0.20;;;;;16.89;87.59;98073.84;5097355;28;8830;-58
2023/08/01 02:36:25;;;;;;;;;0.00;0.00;;;;;16.91;87.51;98079.81;5097506;28;8861;-58
2023/08/01 02:38:53;;;;;;;;;0.60;0.60;;;;;16.92;87.14;98069.88;5097298;28;8810;-58
2023/08/01 02:41:19;;;;;;;;;0.00;0.00;;;;;16.92;87.05;98062.66;5097313;28;8868;-58
2023/08/01 02:43:47;;;;;;;;;0.20;0.20;;;;;16.92;86.99;98070.72;5097300;28;8826;-58
2023/08/01 02:46:15;;;;;;;;;0.20;0.20;;;;;16.92;87.37;98064.50;5097409;28;8817;-58
2023/08/01 02:48:43;;;;;;;;;0.80;0.00;;;;;16.92;86.91;98075.25;5096724;28;8810;-58
2023/08/01 02:51:10;;;;;;;;;0.00;0.00;;;;;16.93;87.22;98079.63;5097233;28;8822;-58
2023/08/01 02:53:40;;;;;;;;;0.20;0.00;;;;;16.93;87.13;98080.44;5096121;28;8829;-58
2023/08/01 02:56:09;;;;;;;;;1.00;0.20;;;;;16.93;87.35;98077.75;5096912;28;8867;-58
2023/08/01 02:58:37;;;;;;;;;0.00;0.00;;;;;16.92;87.45;98080.63;5096687;28;8814;-58
2023/08/01 03:01:05;;;;;;;;;0.00;0.00;;;;;16.89;86.81;98079.22;5097010;28;9631;-58
2023/08/01 03:03:35;;;;;;;;;0.20;0.20;;;;;16.83;87.07;98085.41;5096465;28;8952;-58
2023/08/01 03:06:03;;;;;;;;;1.00;1.00;;;;;16.77;87.11;98080.00;5096637;28;8834;-58
2023/08/01 03:08:31;;;;;;;;;0.00;0.00;;;;;16.71;87.08;98088.94;5096570;28;8818;-58
2023/08/01 03:10:58;;;;;;;;;0.00;0.00;;;;;16.65;87.05;98087.06;5096278;28;8818;-58
2023/08/01 03:13:26;;;;;;;;;0.00;0.00;;;;;16.55;87.37;98079.38;5097058;28;8845;-58
2023/08/01 03:15:53;;;;;;;;;3.00;3.00;;;;;16.49;87.48;98082.88;5096301;28;8825;-58
2023/08/01 03:21:30;;;;;;;;;1.80;1.40;;;;;16.36;87.53;98093.59;5076144;28;8765;-59
2023/08/01 03:27:03;;;;;;;;;3.00;3.00;;;;;16.25;88.19;98086.13;5075942;28;8761;-58
2023/08/01 03:29:30;;;;;;;;;3.00;2.20;;;;;16.20;87.82;98087.75;5080700;28;8826;-58
2023/08/01 03:31:58;;;;;;;;;0.60;0.60;;;;;16.17;87.59;98087.34;5095874;28;8814;-58
2023/08/01 03:34:26;;;;;;;;;4.00;3.40;;;;;16.12;88.29;98090.63;5095959;28;8876;-57
2023/08/01 03:36:54;;;;;;;;;5.20;3.60;;;;;16.10;88.42;98097.22;5096473;28;8903;-58
2023/08/01 03:39:22;;;;;;;;;4.00;4.00;;;;;16.06;88.58;98095.97;5096091;28;9527;-58
2023/08/01 03:41:49;;;;;;;;;4.00;3.00;;;;;16.04;88.09;98096.19;5096305;28;8907;-58
2023/08/01 03:44:18;;;;;;;;;5.20;4.00;;;;;16.03;88.19;98096.38;5096219;28;8825;-58
2023/08/01 03:46:47;;;;;;;;;6.80;5.60;;;;;16.02;88.23;98100.09;5096395;28;8844;-57
2023/08/01 03:49:15;;;;;;;;;4.00;4.00;;;;;16.02;88.53;98100.94;5095614;28;8802;-58
2023/08/01 03:51:42;;;;;;;;;7.00;7.00;;;;;16.01;88.42;98093.88;5095025;28;8826;-58
2023/08/01 03:54:10;;;;;;;;;6.00;6.00;;;;;16.00;88.11;98088.75;5095231;28;8842;-58
2023/08/01 03:56:42;;;;;;;;;9.80;8.60;;;;;16.00;87.98;98096.78;5095007;28;8836;-58
2023/08/01 03:59:11;;;;;;;;;8.60;7.00;;;;;16.00;87.76;98096.78;5094938;28;8822;-58
2023/08/01 04:01:39;;;;;;;;;9.20;7.00;;;;;16.00;88.31;98102.16;5095008;28;8853;-57
2023/08/01 04:04:06;;;;;;;;;11.00;11.00;;;;;15.99;87.95;98101.31;5094230;28;8844;-58
2023/08/01 04:06:34;;;;;;;;;7.80;7.00;;;;;15.99;88.02;98108.56;5094174;28;8838;-58
2023/08/01 04:09:02;;;;;;;;;12.20;9.80;;;;;16.00;88.42;98120.97;5094029;28;8837;-57
2023/08/01 04:11:30;;;;;;;;;12.00;10.00;;;;;16.00;87.97;98119.09;5096876;28;8814;-59
2023/08/01 04:13:57;;;;;;;;;11.20;11.20;;;;;16.02;88.13;98116.22;5099985;28;8841;-58
2023/08/01 04:16:25;;;;;;;;;9.40;9.00;;;;;16.02;87.93;98111.69;5098942;28;8826;-58
2023/08/01 04:18:53;;;;;;;;;9.60;9.00;;;;;16.04;88.16;98119.50;5099044;28;8886;-57
2023/08/01 04:21:21;;;;;;;;;10.20;8.80;;;;;16.05;88.39;98118.47;5099366;28;9530;-57
2023/08/01 04:23:48;;;;;;;;;15.25;13.50;;;;;16.06;88.32;98125.50;5098589;28;8852;-58
2023/08/01 04:26:16;;;;;;;;;12.20;12.00;;;;;16.06;88.03;98117.44;5099004;28;8838;-58
2023/08/01 04:28:43;;;;;;;;;16.00;14.20;;;;;16.06;87.90;98112.06;5098574;28;8853;-58
2023/08/01 04:31:11;;;;;;;;;16.75;14.25;;;;;16.07;88.13;98121.81;5098435;28;8822;-58
2023/08/01 04:33:41;;;;;;;;;14.40;13.60;;;;;16.08;87.89;98121.59;5098639;28;8883;-58
2023/08/01 04:36:08;;;;;;;;;12.20;12.00;;;;;16.08;87.51;98126.16;5099308;28;8834;-58
2023/08/01 04:38:36;;;;;;;;;15.25;13.50;;;;;16.08;87.93;98128.84;5098195;28;8849;-58
2023/08/01 04:41:04;;;;;;;;;19.75;14.50;;;;;16.07;88.02;98129.88;5098051;28;8818;-58
2023/08/01 04:43:31;;;;;;;;;9.60;9.40;;;;;16.07;87.46;98138.75;5098015;28;8842;-58
2023/08/01 04:45:59;;;;;;;;;20.25;16.00;;;;;16.07;87.64;98135.25;5099186;28;8838;-58
2023/08/01 04:48:26;;;;;;;;;16.00;14.50;;;;;16.07;88.08;98135.25;5097551;28;8814;-57
2023/08/01 04:50:54;;;;;;;;;15.40;10.40;;;;;16.06;87.87;98137.09;5098384;28;8845;-58
2023/08/01 04:53:21;;;;;;;;;11.60;10.00;;;;;16.07;87.56;98144.13;5098174;28;8853;-58
2023/08/01 04:55:49;;;;;;;;;12.00;8.80;;;;;16.04;87.20;98130.25;5098034;28;8854;-58
2023/08/01 04:58:18;;;;;;;;;15.25;15.00;;;;;16.01;88.11;98136.84;5097270;28;8846;-58
2023/08/01 05:00:45;;;;;;;;;15.60;14.20;;;;;15.99;87.71;98138.91;5097821;28;8829;-58
2023/08/01 05:03:13;;;;;;;;;13.40;13.20;;;;;15.98;88.18;98136.41;5097331;28;8840;-58
2023/08/01 05:05:41;;;;;;;;;7.00;6.80;;;;;15.98;87.82;98141.78;5097266;28;8854;-56
2023/08/01 05:08:08;;;;;;;;;10.40;9.60;;;;;15.95;87.73;98136.84;5096622;28;9058;-56
2023/08/01 05:10:36;;;;;;;;;9.40;8.60;;;;;15.93;87.63;98144.25;5097472;28;8832;-59
2023/08/01 05:13:04;;;;;;;;;12.40;10.00;;;;;15.88;88.13;98138.66;5098202;28;8984;-57
2023/08/01 05:15:31;;;;;;;;;7.40;6.00;;;;;15.85;88.13;98147.94;5097740;28;9515;-56
2023/08/01 05:17:59;;;;;;;;;8.80;8.80;;;;;15.83;88.33;98150.00;5098560;28;9538;-58
2023/08/01 05:20:30;;;;;;;;;11.20;9.60;;;;;15.85;88.21;98157.84;5097981;28;8894;-59
2023/08/01 05:22:58;;;;;;;;;8.20;7.40;;;;;15.83;87.86;98152.69;5095985;28;8980;-57
2023/08/01 05:25:26;;;;;;;;;10.80;7.00;;;;;15.84;88.14;98164.25;5096773;28;8825;-58
2023/08/01 05:27:54;;;;;;;;;9.80;8.20;;;;;15.85;87.88;98173.97;5096979;28;8907;-58
2023/08/01 05:30:21;;;;;;;;;10.40;7.80;;;;;15.86;88.31;98175.63;5096420;28;8838;-55
2023/08/01 05:32:49;;;;;;;;;10.40;9.20;;;;;15.86;87.70;98173.75;5096863;28;8825;-58
2023/08/01 05:35:17;;;;;;;;;15.80;12.60;;;;;15.88;87.86;98176.25;5097165;28;8864;-58
2023/08/01 05:37:45;;;;;;;;;10.00;9.00;;;;;15.87;88.39;98178.13;5097476;28;8845;-58
2023/08/01 05:40:12;;;;;;;;;11.20;11.20;;;;;15.86;88.04;98176.44;5096915;28;8826;-57
2023/08/01 05:42:40;;;;;;;;;14.00;12.50;;;;;15.89;88.08;98184.09;5096736;28;9507;-58
2023/08/01 05:45:08;;;;;;;;;9.50;9.50;;;;;15.90;87.43;98179.53;5097674;28;8802;-55
2023/08/01 05:47:36;;;;;;;;;12.75;12.25;;;;;15.92;87.26;98185.56;5097068;28;8814;-58
2023/08/01 05:50:04;;;;;;;;;11.50;10.75;;;;;15.95;87.21;98185.16;5096885;28;8899;-57
2023/08/01 05:52:32;;;;;;;;;12.50;12.00;;;;;15.97;87.34;98188.47;5097326;28;8888;-58
2023/08/01 05:54:59;;;;;;;;;12.80;12.40;;;;;15.98;87.65;98184.75;5096881;28;8864;-58
2023/08/01 05:57:27;;;;;;;;;12.80;12.40;;;;;16.03;87.88;98193.88;5097421;28;8837;-58
2023/08/01 05:59:54;;;;;;;;;12.40;12.00;;;;;16.08;87.08;98186.03;5096919;28;8822;-58
2023/08/01 06:02:22;;;;;;;;;12.60;11.60;;;;;16.15;87.02;98183.41;5097385;28;8850;-58
2023/08/01 06:04:50;;;;;;;;;13.00;12.00;;;;;16.20;86.57;98190.63;5097303;28;8931;-58
2023/08/01 06:07:22;;;;;;;;;7.00;7.00;;;;;16.22;87.13;98197.69;5097251;28;8806;-58
2023/08/01 06:09:51;;;;;;;;;10.00;9.00;;;;;16.18;86.64;98190.03;5096544;28;8794;-58
2023/08/01 06:12:19;;;;;;;;;14.50;12.75;;;;;16.12;86.42;98202.59;5097701;28;8820;-58
2023/08/01 06:14:47;;;;;;;;;12.40;10.80;;;;;16.04;86.72;98200.91;5097265;28;9479;-57
2023/08/01 06:17:15;;;;;;;;;14.50;12.50;;;;;15.97;87.16;98205.41;5097073;28;8832;-59
2023/08/01 06:19:43;;;;;;;;;13.00;12.50;;;;;15.91;87.21;98197.34;5096387;28;8890;-57
2023/08/01 06:22:10;;;;;;;;;4.40;3.80;;;;;15.89;87.42;98197.53;5096554;28;8834;-59
2023/08/01 06:24:40;;;;;;;;;11.80;7.80;;;;;15.92;87.52;98197.13;5096742;28;8848;-59
2023/08/01 06:27:08;;;;;;;;;10.00;8.20;;;;;15.95;87.47;98201.28;5096721;28;8838;-59
2023/08/01 06:29:37;;;;;;;;;11.20;10.20;;;;;15.97;87.20;98210.78;5095693;28;8833;-58
2023/08/01 06:32:04;;;;;;;;;12.20;10.00;;;;;15.98;87.77;98208.91;5096591;28;8825;-56
2023/08/01 06:34:32;;;;;;;;;7.80;6.40;;;;;15.99;87.40;98207.91;5095807;28;8846;-57
2023/08/01 06:37:00;;;;;;;;;9.40;9.00;;;;;16.02;86.92;98205.66;5095669;28;8808;-59
2023/08/01 06:39:27;;;;;;;;;13.50;12.00;;;;;16.09;87.06;98211.06;5095658;28;8828;-59
2023/08/01 06:41:55;;;;;;;;;12.75;11.00;;;;;16.15;86.62;98210.28;5095954;28;8818;-56
2023/08/01 06:44:23;;;;;;;;;7.50;7.00;;;;;16.18;86.51;98208.00;5096008;28;8833;-57
2023/08/01 06:46:50;;;;;;;;;12.25;11.75;;;;;16.20;87.24;98214.00;5095286;28;8829;-58
2023/08/01 06:49:18;;;;;;;;;12.75;9.25;;;;;16.23;86.93;98216.28;5095429;28;8826;-58
2023/08/01 06:51:46;;;;;;;;;12.80;10.00;;;;;16.22;86.53;98209.25;5095068;28;8976;-58
2023/08/01 06:54:13;;;;;;;;;12.60;9.80;;;;;16.26;86.16;98216.72;5094954;28;8873;-58
2023/08/01 06:56:47;;;;;;;;;16.75;16.00;;;;;16.34;86.15;98213.03;5095604;28;8838;-59
2023/08/01 06:59:14;;;;;;;;;11.20;9.60;;;;;16.41;85.88;98205.88;5095727;28;8830;-59
2023/08/01 07:01:43;;;;;;;;;15.20;9.80;;;;;16.48;86.02;98209.41;5094753;28;8830;-59
2023/08/01 07:04:11;;;;;;;;;16.00;10.80;;;;;16.50;86.28;98208.16;5093945;28;8821;-58
2023/08/01 07:06:39;;;;;;;;;10.00;9.20;;;;;16.53;85.69;98207.78;5094240;28;8837;-58
2023/08/01 07:09:07;;;;;;;;;6.80;6.00;;;;;16.56;85.48;98211.91;5094378;28;8825;-59
2023/08/01 07:11:34;;;;;;;;;10.80;9.00;;;;;16.64;85.43;98214.41;5094979;28;8837;-58
2023/08/01 07:14:04;;;;;;;;;10.80;10.40;;;;;16.70;84.82;98214.44;5094374;28;8869;-59
2023/08/01 07:16:32;;;;;;;;;10.80;9.80;;;;;16.81;84.99;98210.31;5094234;28;8891;-58
2023/08/01 07:18:59;;;;;;;;;12.00;11.20;;;;;16.97;84.91;98205.41;5095148;28;8940;-58
2023/08/01 07:21:28;;;;;;;;;10.80;9.40;;;;;17.09;84.76;98214.50;5095852;28;8814;-59
2023/08/01 07:23:57;;;;;;;;;10.60;8.60;;;;;17.16;84.27;98219.91;5095221;28;8830;-60
2023/08/01 07:26:25;;;;;;;;;10.00;8.60;;;;;17.14;84.17;98222.78;5094364;28;8842;-59
2023/08/01 07:28:53;;;;;;;;;13.80;13.40;;;;;17.06;84.54;98219.47;5094565;28;8845;-59
2023/08/01 07:31:21;;;;;;;;;7.80;6.00;;;;;17.01;84.75;98222.78;5094697;28;8959;-59
2023/08/01 07:33:49;;;;;;;;;9.20;7.40;;;;;17.02;84.76;98224.41;5094561;28;9439;-59
2023/08/01 07:36:16;;;;;;;;;10.40;9.00;;;;;17.08;85.01;98218.22;5093829;28;9640;-59
2023/08/01 07:38:44;;;;;;;;;8.20;7.80;;;;;17.14;84.56;98228.19;5093315;28;8808;-59
2023/08/01 07:41:12;;;;;;;;;10.80;9.80;;;;;17.23;84.49;98228.81;5094103;28;8806;-59
2023/08/01 07:43:40;;;;;;;;;9.00;7.40;;;;;17.34;84.28;98226.34;5095084;28;8825;-59
2023/08/01 07:46:09;;;;;;;;;10.20;9.80;;;;;17.43;84.05;98227.81;5093683;28;8970;-58
2023/08/01 07:48:37;;;;;;;;;12.00;9.40;;;;;17.44;84.04;98237.53;5093984;28;8836;-58
2023/08/01 07:51:07;;;;;;;;;12.60;12.00;;;;;17.45;84.15;98233.81;5095229;28;8948;-60
2023/08/01 07:53:35;;;;;;;;;4.00;4.00;;;;;17.47;83.62;98239.81;5094642;28;8846;-59
2023/08/01 07:56:03;;;;;;;;;9.80;9.80;;;;;17.56;83.93;98243.97;5093888;28;8867;-59
2023/08/01 07:58:30;;;;;;;;;11.60;10.40;;;;;17.60;83.66;98229.03;5093563;28;8822;-59
2023/08/01 08:00:58;;;;;;;;;9.00;6.60;;;;;17.61;83.84;98244.16;5093891;28;8818;-59
2023/08/01 08:03:26;;;;;;;;;12.20;10.00;;;;;17.59;83.51;98259.69;5094072;28;8890;-59
2023/08/01 08:05:54;;;;;;;;;14.60;13.40;;;;;17.67;83.92;98246.03;5094119;28;8961;-58
2023/08/01 08:08:22;;;;;;;;;10.20;9.20;;;;;17.78;82.87;98242.69;5093870;28;8818;-60
2023/08/01 08:10:49;;;;;;;;;12.40;9.40;;;;;17.87;83.09;98244.16;5094819;28;8834;-60
2023/08/01 08:13:18;;;;;;;;;9.40;7.80;;;;;17.90;83.09;98249.09;5095481;28;8825;-59
2023/08/01 08:15:45;;;;;;;;;4.40;3.20;;;;;17.99;83.21;98247.84;5095052;28;8927;-59
2023/08/01 08:18:13;;;;;;;;;10.60;8.20;;;;;18.09;82.41;98250.94;5095322;28;9705;-59
2023/08/01 08:20:41;;;;;;;;;11.20;9.40;;;;;18.25;82.19;98247.78;5095258;28;9602;-58
2023/08/01 08:23:09;;;;;;;;;7.40;6.80;;;;;18.41;82.12;98266.22;5095119;28;8845;-60
2023/08/01 08:25:36;;;;;;;;;8.80;8.20;;;;;18.55;82.15;98257.06;5095100;28;8964;-61
2023/08/01 08:28:04;;;;;;;;;8.60;7.40;;;;;18.64;81.43;98253.06;5093977;28;8810;-59
2023/08/01 08:30:32;;;;;;;;;13.40;11.60;;;;;18.72;80.83;98252.00;5094608;28;9515;-59
2023/08/01 08:33:04;;;;;;;;;12.20;11.60;;;;;18.69;81.08;98253.28;5094567;28;8842;-59
2023/08/01 08:35:32;;;;;;;;;9.80;7.40;;;;;18.68;81.10;98256.16;5094433;28;8857;-59
2023/08/01 08:37:59;;;;;;;;;9.00;8.60;;;;;18.67;81.34;98255.34;5094135;28;8844;-60
2023/08/01 08:40:27;;;;;;;;;6.20;6.20;;;;;18.70;81.17;98254.91;5093593;28;8846;-57
2023/08/01 08:42:55;;;;;;;;;7.00;7.00;;;;;18.76;80.94;98264.00;5094629;28;8948;-59
2023/08/01 08:45:22;;;;;;;;;10.00;9.60;;;;;18.89;80.85;98262.06;5093532;28;8830;-59
2023/08/01 08:47:50;;;;;;;;;7.20;6.20;;;;;19.01;80.71;98265.75;5093683;28;8844;-58
2023/08/01 08:50:18;;;;;;;;;6.40;5.80;;;;;19.07;80.54;98255.97;5093076;28;8856;-58
2023/08/01 08:52:46;;;;;;;;;9.00;7.80;;;;;19.17;80.69;98273.34;5093819;28;8864;-60
2023/08/01 08:55:14;;;;;;;;;7.00;5.60;;;;;19.35;79.73;98261.84;5093456;28;8926;-59
2023/08/01 08:57:44;;;;;;;;;9.40;7.00;;;;;19.48;79.19;98257.16;5096449;28;8826;-59
2023/08/01 09:00:12;;;;;;;;;6.20;4.80;;;;;19.50;79.25;98257.75;5098625;28;8838;-60
2023/08/01 09:02:40;;;;;;;;;5.60;5.40;;;;;19.60;79.28;98251.88;5097940;28;8850;-60
2023/08/01 09:05:08;;;;;;;;;6.60;6.60;;;;;19.76;79.14;98268.38;5096924;28;8850;-60
2023/08/01 09:07:35;;;;;;;;;8.20;7.80;;;;;19.92;78.56;98257.00;5096696;28;8833;-60
2023/08/01 09:10:03;;;;;;;;;4.60;4.00;;;;;19.90;78.49;98258.25;5097204;28;8832;-59
2023/08/01 09:12:31;;;;;;;;;6.20;6.20;;;;;19.93;78.63;98253.25;5096943;28;8857;-58
2023/08/01 09:18:02;;;;;;;;;6.20;6.00;;;;;19.98;78.25;98258.81;5097825;28;8791;-59
2023/08/01 09:20:30;;;;;;;;;5.20;4.00;;;;;20.02;78.42;98251.91;5096116;28;8826;-58
2023/08/01 09:22:58;;;;;;;;;8.20;6.80;;;;;20.02;78.43;98256.50;5095570;28;8950;-58
2023/08/01 09:25:25;;;;;;;;;5.80;5.40;;;;;20.05;78.21;98261.47;5095101;28;8845;-58
2023/08/01 09:27:53;;;;;;;;;3.00;2.00;;;;;20.05;78.42;98259.63;5094474;28;8907;-60
2023/08/01 09:30:21;;;;;;;;;7.80;7.00;;;;;20.01;78.57;98266.47;5095107;28;8968;-61
2023/08/01 09:32:49;;;;;;;;;6.40;5.40;;;;;19.85;78.85;98258.94;5094899;28;8833;-59
2023/08/01 09:35:17;;;;;;;;;6.40;5.60;;;;;19.49;79.15;98268.81;5094673;28;8858;-57
2023/08/01 09:37:45;;;;;;;;;4.00;4.00;;;;;18.85;80.90;98274.34;5095603;28;8834;-59
2023/08/01 09:40:13;;;;;;;;;9.40;7.60;;;;;18.33;82.42;98276.41;5095676;28;8834;-60
2023/08/01 09:42:40;;;;;;;;;6.80;6.00;;;;;18.02;82.91;98271.69;5095788;28;8838;-60
2023/08/01 09:45:08;;;;;;;;;6.40;6.20;;;;;17.87;83.36;98273.78;5095684;28;8944;-59
2023/08/01 09:47:36;;;;;;;;;6.20;6.00;;;;;18.10;83.13;98273.31;5096326;28;8830;-58
2023/08/01 09:50:04;;;;;;;;;6.80;6.80;;;;;18.56;81.90;98280.28;5095983;28;8852;-57
2023/08/01 09:52:32;;;;;;;;;7.40;6.60;;;;;18.98;80.66;98273.44;5096270;28;8867;-59
2023/08/01 09:55:00;;;;;;;;;6.80;6.60;;;;;19.44;79.57;98263.22;5095708;28;8840;-59
2023/08/01 09:57:28;;;;;;;;;6.20;4.80;;;;;20.02;77.67;98256.50;5095875;28;8834;-58
2023/08/01 09:59:56;;;;;;;;;9.00;8.20;;;;;20.47;77.05;98255.22;5095852;28;8879;-57
2023/08/01 10:02:24;;;;;;;;;7.20;6.20;;;;;20.59;77.02;98254.22;5096207;28;8941;-57
2023/08/01 10:04:52;;;;;;;;;7.20;7.00;;;;;21.05;75.74;98265.31;5095917;28;8838;-60
2023/08/01 10:07:21;;;;;;;;;10.40;7.20;;;;;21.35;74.97;98258.00;5096019;28;8822;-59
2023/08/01 10:09:49;;;;;;;;;6.60;6.60;;;;;21.57;74.90;98251.00;5094882;28;8834;-57
2023/08/01 10:12:16;;;;;;;;;5.00;4.80;;;;;21.63;74.04;98253.59;5096272;28;8942;-59
2023/08/01 10:14:44;;;;;;;;;6.20;6.20;;;;;21.83;73.98;98253.28;5095161;28;8857;-60
2023/08/01 10:17:12;;;;;;;;;6.60;5.80;;;;;22.00;73.52;98257.78;5096594;28;9484;-58
2023/08/01 10:19:41;;;;;;;;;6.80;6.60;;;;;22.45;73.02;98244.44;5096172;28;8830;-58
2023/08/01 10:22:09;;;;;;;;;9.00;6.80;;;;;22.92;71.60;98252.22;5096380;28;8960;-59
2023/08/01 10:24:37;;;;;;;;;8.00;8.00;;;;;23.03;72.13;98258.69;5095604;28;8821;-59
2023/08/01 10:27:05;;;;;;;;;7.00;7.00;;;;;22.85;71.90;98242.59;5096686;28;8971;-59
2023/08/01 10:29:33;;;;;;;;;7.40;5.60;;;;;23.18;71.82;98240.84;5095919;28;8825;-58
2023/08/01 10:32:00;;;;;;;;;6.20;5.00;;;;;23.71;70.81;98251.25;5094906;28;8864;-58
2023/08/01 10:34:29;;;;;;;;;6.40;6.20;;;;;23.62;70.86;98244.59;5094660;28;8853;-60
2023/08/01 10:36:56;;;;;;;;;5.60;5.00;;;;;23.76;70.09;98248.63;5094793;28;8846;-59
2023/08/01 10:39:24;;;;;;;;;4.00;4.00;;;;;23.72;70.79;98252.91;5095295;28;8826;-60
2023/08/01 10:41:52;;;;;;;;;7.60;6.00;;;;;23.29;71.13;98250.00;5094400;28;8960;-58
2023/08/01 10:44:20;;;;;;;;;5.40;5.40;;;;;22.61;72.51;98266.25;5093906;28;8830;-60
2023/08/01 10:46:48;;;;;;;;;5.00;5.00;;;;;21.52;74.71;98288.78;5094620;28;8842;-60
2023/08/01 10:49:16;;;;;;;;;3.20;2.00;;;;;20.19;76.75;98298.16;5093966;28;8830;-60
2023/08/01 10:51:44;;;;;;;;;5.80;4.00;;;;;19.30;79.96;98299.44;5094717;28;9507;-58
2023/08/01 10:54:12;;;;;;;;;3.20;3.20;;;;;18.69;81.56;98301.81;5094348;28;8844;-59
2023/08/01 10:56:40;;;;;;;;;4.60;4.60;;;;;18.30;82.71;98310.00;5094480;28;8853;-60
2023/08/01 10:59:08;;;;;;;;;4.80;4.00;;;;;18.00;83.60;98300.69;5095567;28;8836;-58
2023/08/01 11:01:36;;;;;;;;;4.00;4.00;;;;;17.83;83.92;98299.47;5095372;28;8802;-59
2023/08/01 11:04:04;;;;;;;;;5.20;4.00;;;;;17.84;84.18;98301.13;5094087;28;9523;-59
2023/08/01 11:06:32;;;;;;;;;5.20;4.40;;;;;17.88;84.00;98299.66;5094051;28;8873;-58
2023/08/01 11:09:00;;;;;;;;;6.80;6.80;;;;;17.99;83.54;98298.22;5094520;28;8833;-58
2023/08/01 11:11:28;;;;;;;;;6.40;6.40;;;;;18.03;83.65;98304.81;5094091;28;8825;-56
2023/08/01 11:13:56;;;;;;;;;4.40;3.60;;;;;18.19;83.58;98299.00;5094893;28;8830;-58
2023/08/01 11:16:25;;;;;;;;;6.60;6.60;;;;;18.42;82.66;98302.94;5094887;28;9516;-56
2023/08/01 11:18:53;;;;;;;;;5.20;4.00;;;;;18.76;81.66;98291.78;5094622;28;8833;-59
2023/08/01 11:21:21;;;;;;;;;7.00;6.00;;;;;19.41;80.06;98294.19;5094623;28;8830;-59
2023/08/01 11:23:49;;;;;;;;;7.00;7.00;;;;;19.90;78.44;98296.09;5094900;28;8829;-59
2023/08/01 11:26:17;;;;;;;;;4.60;4.00;;;;;20.20;77.39;98292.53;5094522;28;8943;-58
2023/08/01 11:28:45;;;;;;;;;7.00;6.20;;;;;20.84;75.85;98279.28;5095026;28;8858;-59
2023/08/01 11:31:15;;;;;;;;;5.20;4.00;;;;;21.34;74.61;98284.25;5094860;28;8818;-58
2023/08/01 11:33:43;;;;;;;;;4.60;4.60;;;;;22.27;72.63;98277.13;5094557;28;8957;-58
2023/08/01 11:36:11;;;;;;;;;4.60;4.00;;;;;22.87;71.17;98273.88;5094665;28;9000;-58
2023/08/01 11:38:39;;;;;;;;;9.60;6.20;;;;;22.49;71.62;98280.91;5095076;28;8850;-59
2023/08/01 11:41:07;;;;;;;;;5.80;5.80;;;;;21.91;73.12;98289.00;5095392;28;8821;-59
2023/08/01 11:43:34;;;;;;;;;7.80;7.40;;;;;21.21;75.12;98314.25;5094646;28;8830;-59
2023/08/01 11:46:03;;;;;;;;;4.00;2.00;;;;;20.08;77.71;98336.69;5094830;28;8832;-59
2023/08/01 11:48:31;;;;;;;;;7.00;5.00;;;;;19.17;79.94;98348.91;5094316;28;8838;-57
2023/08/01 11:51:01;;;;;;;;;4.40;4.40;;;;;18.66;81.18;98349.97;5093889;28;8830;-58
2023/08/01 11:53:29;;;;;;;;;3.60;2.40;;;;;18.30;82.45;98361.19;5094529;28;9575;-58
2023/08/01 11:55:57;;;;;;;;;6.40;4.80;;;;;18.10;82.97;98360.38;5093479;28;8822;-55
2023/08/01 11:58:25;;;;;;;;;3.80;3.40;;;;;18.10;82.89;98360.38;5093692;28;8826;-58